sensor_id;sensor_type;location;lat;lon;timestamp;P1;durP1;ratioP1;P2;durP2;ratioP2
9117;SDS011;4594;50.994;7.126;2024-03-02T00:00:01;2.60;;;2.50;;
9117;SDS011;4594;50.994;7.126;2024-03-02T00:02:42;2.60;;;2.50;;
9117;SDS011;4594;50.994;7.126;2024-03-02T00:05:11;2.47;;;2.37;;
9117;SDS011;4594;50.994;7.126;2024-03-02T00:07:41;2.70;;;2.60;;
9117;SDS011;4594;50.994;7.126;2024-03-02T00:10:10;2.80;;;2.70;;
9117;SDS011;4594;50.994;7.126;2024-03-02T00:12:41;2.63;;;2.53;;
9117;SDS011;4594;50.994;7.126;2024-03-02T00:18:11;2.60;;;2.50;;
9117;SDS011;4594;50.994;7.126;2024-03-02T00:20:58;2.30;;;2.23;;
9117;SDS011;4594;50.994;7.126;2024-03-02T00:23:31;2.67;;;2.57;;
9117;SDS011;4594;50.994;7.126;2024-03-02T00:25:58;2.50;;;2.30;;
9117;SDS011;4594;50.994;7.126;2024-03-02T00:28:27;2.30;;;2.20;;
9117;SDS011;4594;50.994;7.126;2024-03-02T00:31:05;2.37;;;2.13;;
9117;SDS011;4594;50.994;7.126;2024-03-02T00:33:42;2.90;;;2.70;;
9117;SDS011;4594;50.994;7.126;2024-03-02T00:36:16;2.73;;;2.53;;
9117;SDS011;4594;50.994;7.126;2024-03-02T00:38:50;2.70;;;2.60;;
9117;SDS011;4594;50.994;7.126;2024-03-02T00:41:28;2.60;;;2.50;;
9117;SDS011;4594;50.994;7.126;2024-03-02T00:46:29;2.60;;;2.40;;
9117;SDS011;4594;50.994;7.126;2024-03-02T00:49:11;2.20;;;2.10;;
9117;SDS011;4594;50.994;7.126;2024-03-02T00:51:38;2.07;;;2.07;;
9117;SDS011;4594;50.994;7.126;2024-03-02T00:54:05;2.63;;;2.53;;
9117;SDS011;4594;50.994;7.126;2024-03-02T00:56:34;2.90;;;2.80;;
9117;SDS011;4594;50.994;7.126;2024-03-02T00:59:00;2.20;;;2.13;;
9117;SDS011;4594;50.994;7.126;2024-03-02T01:01:26;2.20;;;2.10;;
9117;SDS011;4594;50.994;7.126;2024-03-02T01:03:52;2.37;;;2.30;;
9117;SDS011;4594;50.994;7.126;2024-03-02T01:06:18;2.40;;;2.33;;
9117;SDS011;4594;50.994;7.126;2024-03-02T01:08:44;2.37;;;2.30;;
9117;SDS011;4594;50.994;7.126;2024-03-02T01:11:11;3.40;;;2.00;;
9117;SDS011;4594;50.994;7.126;2024-03-02T01:13:37;2.30;;;2.20;;
9117;SDS011;4594;50.994;7.126;2024-03-02T01:16:02;2.20;;;2.20;;
9117;SDS011;4594;50.994;7.126;2024-03-02T01:18:29;2.30;;;2.10;;
9117;SDS011;4594;50.994;7.126;2024-03-02T01:20:55;2.50;;;2.40;;
9117;SDS011;4594;50.994;7.126;2024-03-02T01:23:22;3.83;;;2.30;;
9117;SDS011;4594;50.994;7.126;2024-03-02T01:25:48;2.40;;;2.30;;
9117;SDS011;4594;50.994;7.126;2024-03-02T01:28:16;2.23;;;2.23;;
9117;SDS011;4594;50.994;7.126;2024-03-02T01:30:42;2.40;;;2.30;;
9117;SDS011;4594;50.994;7.126;2024-03-02T01:33:08;2.27;;;2.20;;
9117;SDS011;4594;50.994;7.126;2024-03-02T01:35:34;2.40;;;2.30;;
9117;SDS011;4594;50.994;7.126;2024-03-02T01:38:00;2.30;;;2.20;;
9117;SDS011;4594;50.994;7.126;2024-03-02T01:40:26;2.23;;;2.13;;
9117;SDS011;4594;50.994;7.126;2024-03-02T01:42:53;2.30;;;2.30;;
9117;SDS011;4594;50.994;7.126;2024-03-02T01:45:20;2.43;;;2.23;;
9117;SDS011;4594;50.994;7.126;2024-03-02T01:47:46;2.50;;;2.40;;
9117;SDS011;4594;50.994;7.126;2024-03-02T01:50:12;2.57;;;2.47;;
9117;SDS011;4594;50.994;7.126;2024-03-02T01:52:38;2.43;;;2.33;;
9117;SDS011;4594;50.994;7.126;2024-03-02T01:55:04;2.50;;;2.30;;
9117;SDS011;4594;50.994;7.126;2024-03-02T01:57:32;2.40;;;2.30;;
9117;SDS011;4594;50.994;7.126;2024-03-02T02:00:01;2.30;;;2.30;;
9117;SDS011;4594;50.994;7.126;2024-03-02T02:02:28;2.33;;;2.23;;
9117;SDS011;4594;50.994;7.126;2024-03-02T02:04:54;2.20;;;2.10;;
9117;SDS011;4594;50.994;7.126;2024-03-02T02:07:19;2.23;;;2.13;;
9117;SDS011;4594;50.994;7.126;2024-03-02T02:09:45;2.40;;;2.37;;
9117;SDS011;4594;50.994;7.126;2024-03-02T02:12:11;2.33;;;2.33;;
9117;SDS011;4594;50.994;7.126;2024-03-02T02:14:36;2.53;;;2.43;;
9117;SDS011;4594;50.994;7.126;2024-03-02T02:17:04;2.47;;;2.37;;
9117;SDS011;4594;50.994;7.126;2024-03-02T02:19:29;2.40;;;2.20;;
9117;SDS011;4594;50.994;7.126;2024-03-02T02:21:55;2.17;;;2.17;;
9117;SDS011;4594;50.994;7.126;2024-03-02T02:24:21;2.40;;;2.30;;
9117;SDS011;4594;50.994;7.126;2024-03-02T02:26:46;2.10;;;2.10;;
9117;SDS011;4594;50.994;7.126;2024-03-02T02:29:12;2.40;;;2.30;;
9117;SDS011;4594;50.994;7.126;2024-03-02T02:31:38;3.83;;;2.83;;
9117;SDS011;4594;50.994;7.126;2024-03-02T02:34:07;2.37;;;2.33;;
9117;SDS011;4594;50.994;7.126;2024-03-02T02:36:34;2.57;;;2.40;;
9117;SDS011;4594;50.994;7.126;2024-03-02T02:39:04;2.30;;;2.20;;
9117;SDS011;4594;50.994;7.126;2024-03-02T02:41:35;2.13;;;2.03;;
9117;SDS011;4594;50.994;7.126;2024-03-02T02:44:01;2.50;;;2.40;;
9117;SDS011;4594;50.994;7.126;2024-03-02T02:46:27;2.10;;;2.10;;
9117;SDS011;4594;50.994;7.126;2024-03-02T02:48:52;2.17;;;2.17;;
9117;SDS011;4594;50.994;7.126;2024-03-02T02:51:18;2.67;;;2.57;;
9117;SDS011;4594;50.994;7.126;2024-03-02T02:53:44;2.73;;;2.63;;
9117;SDS011;4594;50.994;7.126;2024-03-02T02:56:10;2.87;;;2.77;;
9117;SDS011;4594;50.994;7.126;2024-03-02T02:58:35;2.60;;;2.50;;
9117;SDS011;4594;50.994;7.126;2024-03-02T03:01:01;2.40;;;2.30;;
9117;SDS011;4594;50.994;7.126;2024-03-02T03:03:27;5.37;;;2.47;;
9117;SDS011;4594;50.994;7.126;2024-03-02T03:05:53;2.30;;;2.20;;
9117;SDS011;4594;50.994;7.126;2024-03-02T03:08:18;2.27;;;2.23;;
9117;SDS011;4594;50.994;7.126;2024-03-02T03:10:44;2.67;;;2.47;;
9117;SDS011;4594;50.994;7.126;2024-03-02T03:13:10;2.40;;;2.20;;
9117;SDS011;4594;50.994;7.126;2024-03-02T03:15:36;2.57;;;2.47;;
9117;SDS011;4594;50.994;7.126;2024-03-02T03:18:02;2.93;;;2.67;;
9117;SDS011;4594;50.994;7.126;2024-03-02T03:20:29;2.40;;;2.30;;
9117;SDS011;4594;50.994;7.126;2024-03-02T03:22:56;2.27;;;2.27;;
9117;SDS011;4594;50.994;7.126;2024-03-02T03:25:22;2.50;;;2.40;;
9117;SDS011;4594;50.994;7.126;2024-03-02T03:27:48;2.80;;;2.70;;
9117;SDS011;4594;50.994;7.126;2024-03-02T03:30:14;4.60;;;2.73;;
9117;SDS011;4594;50.994;7.126;2024-03-02T03:32:40;2.00;;;2.00;;
9117;SDS011;4594;50.994;7.126;2024-03-02T03:35:06;2.27;;;1.90;;
9117;SDS011;4594;50.994;7.126;2024-03-02T03:37:32;2.30;;;2.20;;
9117;SDS011;4594;50.994;7.126;2024-03-02T03:40:01;2.23;;;2.23;;
9117;SDS011;4594;50.994;7.126;2024-03-02T03:42:31;2.10;;;2.07;;
9117;SDS011;4594;50.994;7.126;2024-03-02T03:44:57;2.47;;;2.27;;
9117;SDS011;4594;50.994;7.126;2024-03-02T03:47:23;2.40;;;2.30;;
9117;SDS011;4594;50.994;7.126;2024-03-02T03:49:48;2.40;;;2.30;;
9117;SDS011;4594;50.994;7.126;2024-03-02T03:52:14;2.40;;;2.30;;
9117;SDS011;4594;50.994;7.126;2024-03-02T03:54:40;2.00;;;1.90;;
9117;SDS011;4594;50.994;7.126;2024-03-02T03:57:07;2.40;;;2.30;;
9117;SDS011;4594;50.994;7.126;2024-03-02T03:59:33;2.37;;;2.30;;
9117;SDS011;4594;50.994;7.126;2024-03-02T04:01:59;2.67;;;2.40;;
9117;SDS011;4594;50.994;7.126;2024-03-02T04:04:25;2.30;;;2.20;;
9117;SDS011;4594;50.994;7.126;2024-03-02T04:06:50;2.20;;;2.20;;
9117;SDS011;4594;50.994;7.126;2024-03-02T04:09:16;2.33;;;2.27;;
9117;SDS011;4594;50.994;7.126;2024-03-02T04:11:41;2.63;;;2.53;;
9117;SDS011;4594;50.994;7.126;2024-03-02T04:14:07;2.67;;;2.50;;
9117;SDS011;4594;50.994;7.126;2024-03-02T04:16:33;2.60;;;2.50;;
9117;SDS011;4594;50.994;7.126;2024-03-02T04:18:59;3.00;;;2.30;;
9117;SDS011;4594;50.994;7.126;2024-03-02T04:21:25;2.77;;;2.67;;
9117;SDS011;4594;50.994;7.126;2024-03-02T04:23:50;2.50;;;2.50;;
9117;SDS011;4594;50.994;7.126;2024-03-02T04:26:16;2.17;;;2.17;;
9117;SDS011;4594;50.994;7.126;2024-03-02T04:28:47;2.90;;;2.73;;
9117;SDS011;4594;50.994;7.126;2024-03-02T04:31:14;2.93;;;2.70;;
9117;SDS011;4594;50.994;7.126;2024-03-02T04:33:40;2.70;;;2.60;;
9117;SDS011;4594;50.994;7.126;2024-03-02T04:36:06;2.47;;;2.40;;
9117;SDS011;4594;50.994;7.126;2024-03-02T04:38:34;2.80;;;2.70;;
9117;SDS011;4594;50.994;7.126;2024-03-02T04:41:00;3.17;;;3.00;;
9117;SDS011;4594;50.994;7.126;2024-03-02T04:43:26;2.50;;;2.43;;
9117;SDS011;4594;50.994;7.126;2024-03-02T04:45:52;2.60;;;2.50;;
9117;SDS011;4594;50.994;7.126;2024-03-02T04:48:17;2.90;;;2.80;;
9117;SDS011;4594;50.994;7.126;2024-03-02T04:50:44;3.27;;;2.97;;
9117;SDS011;4594;50.994;7.126;2024-03-02T04:53:10;2.60;;;2.50;;
9117;SDS011;4594;50.994;7.126;2024-03-02T04:55:36;2.93;;;2.83;;
9117;SDS011;4594;50.994;7.126;2024-03-02T04:58:04;3.13;;;2.83;;
9117;SDS011;4594;50.994;7.126;2024-03-02T05:00:31;3.03;;;2.83;;
9117;SDS011;4594;50.994;7.126;2024-03-02T05:02:57;3.00;;;2.90;;
9117;SDS011;4594;50.994;7.126;2024-03-02T05:05:23;2.87;;;2.77;;
9117;SDS011;4594;50.994;7.126;2024-03-02T05:07:48;3.97;;;3.20;;
9117;SDS011;4594;50.994;7.126;2024-03-02T05:10:14;3.30;;;3.10;;
9117;SDS011;4594;50.994;7.126;2024-03-02T05:12:40;3.20;;;3.00;;
9117;SDS011;4594;50.994;7.126;2024-03-02T05:15:09;3.17;;;2.87;;
9117;SDS011;4594;50.994;7.126;2024-03-02T05:17:38;2.83;;;2.73;;
9117;SDS011;4594;50.994;7.126;2024-03-02T05:20:05;3.10;;;2.90;;
9117;SDS011;4594;50.994;7.126;2024-03-02T05:22:33;2.90;;;2.80;;
9117;SDS011;4594;50.994;7.126;2024-03-02T05:25:00;3.03;;;2.90;;
9117;SDS011;4594;50.994;7.126;2024-03-02T05:27:29;3.00;;;2.90;;
9117;SDS011;4594;50.994;7.126;2024-03-02T05:29:57;2.80;;;2.70;;
9117;SDS011;4594;50.994;7.126;2024-03-02T05:32:26;4.73;;;2.83;;
9117;SDS011;4594;50.994;7.126;2024-03-02T05:34:52;2.70;;;2.63;;
9117;SDS011;4594;50.994;7.126;2024-03-02T05:37:18;2.70;;;2.57;;
9117;SDS011;4594;50.994;7.126;2024-03-02T05:39:44;2.93;;;2.83;;
9117;SDS011;4594;50.994;7.126;2024-03-02T05:42:10;2.70;;;2.60;;
9117;SDS011;4594;50.994;7.126;2024-03-02T05:44:36;2.90;;;2.80;;
9117;SDS011;4594;50.994;7.126;2024-03-02T05:47:02;3.30;;;3.03;;
9117;SDS011;4594;50.994;7.126;2024-03-02T05:49:28;3.10;;;2.90;;
9117;SDS011;4594;50.994;7.126;2024-03-02T05:51:54;3.20;;;3.00;;
9117;SDS011;4594;50.994;7.126;2024-03-02T05:54:21;3.10;;;2.90;;
9117;SDS011;4594;50.994;7.126;2024-03-02T05:56:47;2.70;;;2.60;;
9117;SDS011;4594;50.994;7.126;2024-03-02T05:59:12;3.20;;;3.00;;
9117;SDS011;4594;50.994;7.126;2024-03-02T06:01:41;2.93;;;2.83;;
9117;SDS011;4594;50.994;7.126;2024-03-02T06:04:09;3.10;;;2.90;;
9117;SDS011;4594;50.994;7.126;2024-03-02T06:06:36;3.50;;;3.20;;
9117;SDS011;4594;50.994;7.126;2024-03-02T06:09:02;3.30;;;3.00;;
9117;SDS011;4594;50.994;7.126;2024-03-02T06:11:40;3.47;;;3.27;;
9117;SDS011;4594;50.994;7.126;2024-03-02T06:14:06;3.00;;;2.80;;
9117;SDS011;4594;50.994;7.126;2024-03-02T06:16:33;3.03;;;2.93;;
9117;SDS011;4594;50.994;7.126;2024-03-02T06:19:00;3.33;;;3.10;;
9117;SDS011;4594;50.994;7.126;2024-03-02T06:21:29;3.30;;;3.00;;
9117;SDS011;4594;50.994;7.126;2024-03-02T06:23:54;3.27;;;3.07;;
9117;SDS011;4594;50.994;7.126;2024-03-02T06:26:21;3.30;;;3.13;;
9117;SDS011;4594;50.994;7.126;2024-03-02T06:28:47;2.93;;;2.77;;
9117;SDS011;4594;50.994;7.126;2024-03-02T06:31:12;3.30;;;3.10;;
9117;SDS011;4594;50.994;7.126;2024-03-02T06:33:38;3.10;;;2.90;;
9117;SDS011;4594;50.994;7.126;2024-03-02T06:36:05;3.37;;;3.17;;
9117;SDS011;4594;50.994;7.126;2024-03-02T06:38:33;3.40;;;3.20;;
9117;SDS011;4594;50.994;7.126;2024-03-02T06:40:59;3.10;;;2.90;;
9117;SDS011;4594;50.994;7.126;2024-03-02T06:43:25;4.00;;;3.30;;
9117;SDS011;4594;50.994;7.126;2024-03-02T06:45:51;3.40;;;3.20;;
9117;SDS011;4594;50.994;7.126;2024-03-02T06:48:17;5.23;;;3.17;;
9117;SDS011;4594;50.994;7.126;2024-03-02T06:50:46;3.43;;;3.20;;
9117;SDS011;4594;50.994;7.126;2024-03-02T06:53:15;3.10;;;3.00;;
9117;SDS011;4594;50.994;7.126;2024-03-02T06:55:43;3.43;;;3.23;;
9117;SDS011;4594;50.994;7.126;2024-03-02T06:58:12;4.20;;;3.20;;
9117;SDS011;4594;50.994;7.126;2024-03-02T07:00:40;3.33;;;3.13;;
9117;SDS011;4594;50.994;7.126;2024-03-02T07:03:09;2.77;;;2.67;;
9117;SDS011;4594;50.994;7.126;2024-03-02T07:05:35;3.33;;;2.70;;
9117;SDS011;4594;50.994;7.126;2024-03-02T07:08:01;3.50;;;3.07;;
9117;SDS011;4594;50.994;7.126;2024-03-02T07:10:27;2.67;;;2.57;;
9117;SDS011;4594;50.994;7.126;2024-03-02T07:12:53;3.27;;;3.07;;
9117;SDS011;4594;50.994;7.126;2024-03-02T07:15:19;2.60;;;2.50;;
9117;SDS011;4594;50.994;7.126;2024-03-02T07:18:03;2.67;;;2.57;;
9117;SDS011;4594;50.994;7.126;2024-03-02T07:20:29;3.10;;;2.90;;
9117;SDS011;4594;50.994;7.126;2024-03-02T07:22:55;2.47;;;2.37;;
9117;SDS011;4594;50.994;7.126;2024-03-02T07:25:21;2.93;;;2.63;;
9117;SDS011;4594;50.994;7.126;2024-03-02T07:27:46;2.73;;;2.43;;
9117;SDS011;4594;50.994;7.126;2024-03-02T07:30:15;5.60;;;2.33;;
9117;SDS011;4594;50.994;7.126;2024-03-02T07:32:43;2.90;;;2.30;;
9117;SDS011;4594;50.994;7.126;2024-03-02T07:35:11;2.53;;;2.43;;
9117;SDS011;4594;50.994;7.126;2024-03-02T07:37:38;2.70;;;2.50;;
9117;SDS011;4594;50.994;7.126;2024-03-02T07:40:05;2.60;;;2.50;;
9117;SDS011;4594;50.994;7.126;2024-03-02T07:42:34;2.53;;;2.33;;
9117;SDS011;4594;50.994;7.126;2024-03-02T07:45:00;2.43;;;2.33;;
9117;SDS011;4594;50.994;7.126;2024-03-02T07:47:26;2.40;;;2.20;;
9117;SDS011;4594;50.994;7.126;2024-03-02T07:49:52;3.73;;;2.40;;
9117;SDS011;4594;50.994;7.126;2024-03-02T07:52:17;2.40;;;2.20;;
9117;SDS011;4594;50.994;7.126;2024-03-02T07:54:43;2.33;;;2.27;;
9117;SDS011;4594;50.994;7.126;2024-03-02T07:57:09;3.73;;;2.53;;
9117;SDS011;4594;50.994;7.126;2024-03-02T07:59:35;2.87;;;2.30;;
9117;SDS011;4594;50.994;7.126;2024-03-02T08:02:02;2.50;;;2.40;;
9117;SDS011;4594;50.994;7.126;2024-03-02T08:04:28;2.50;;;2.30;;
9117;SDS011;4594;50.994;7.126;2024-03-02T08:06:53;2.47;;;2.23;;
9117;SDS011;4594;50.994;7.126;2024-03-02T08:09:19;2.57;;;2.03;;
9117;SDS011;4594;50.994;7.126;2024-03-02T08:11:45;2.40;;;2.00;;
9117;SDS011;4594;50.994;7.126;2024-03-02T08:14:11;2.20;;;2.10;;
9117;SDS011;4594;50.994;7.126;2024-03-02T08:16:36;2.20;;;2.10;;
9117;SDS011;4594;50.994;7.126;2024-03-02T08:19:02;2.17;;;2.07;;
9117;SDS011;4594;50.994;7.126;2024-03-02T08:21:28;2.30;;;2.10;;
9117;SDS011;4594;50.994;7.126;2024-03-02T08:23:55;2.10;;;2.00;;
9117;SDS011;4594;50.994;7.126;2024-03-02T08:26:23;2.30;;;2.20;;
9117;SDS011;4594;50.994;7.126;2024-03-02T08:28:49;2.50;;;1.97;;
9117;SDS011;4594;50.994;7.126;2024-03-02T08:31:14;1.77;;;1.67;;
9117;SDS011;4594;50.994;7.126;2024-03-02T08:33:40;2.10;;;1.97;;
9117;SDS011;4594;50.994;7.126;2024-03-02T08:36:06;2.87;;;1.97;;
9117;SDS011;4594;50.994;7.126;2024-03-02T08:38:34;1.77;;;1.67;;
9117;SDS011;4594;50.994;7.126;2024-03-02T08:41:00;1.80;;;1.70;;
9117;SDS011;4594;50.994;7.126;2024-03-02T08:43:26;2.57;;;1.73;;
9117;SDS011;4594;50.994;7.126;2024-03-02T08:45:51;1.30;;;1.30;;
9117;SDS011;4594;50.994;7.126;2024-03-02T08:48:17;1.40;;;1.40;;
9117;SDS011;4594;50.994;7.126;2024-03-02T08:50:43;1.50;;;1.40;;
9117;SDS011;4594;50.994;7.126;2024-03-02T08:53:08;1.63;;;1.20;;
9117;SDS011;4594;50.994;7.126;2024-03-02T08:55:34;1.10;;;1.10;;
9117;SDS011;4594;50.994;7.126;2024-03-02T08:58:00;1.07;;;1.07;;
9117;SDS011;4594;50.994;7.126;2024-03-02T09:00:26;2.43;;;1.47;;
9117;SDS011;4594;50.994;7.126;2024-03-02T09:02:51;1.47;;;1.23;;
9117;SDS011;4594;50.994;7.126;2024-03-02T09:05:17;1.40;;;1.40;;
9117;SDS011;4594;50.994;7.126;2024-03-02T09:07:43;2.03;;;1.57;;
9117;SDS011;4594;50.994;7.126;2024-03-02T09:10:08;1.33;;;1.23;;
9117;SDS011;4594;50.994;7.126;2024-03-02T09:12:35;1.20;;;1.20;;
9117;SDS011;4594;50.994;7.126;2024-03-02T09:15:01;1.37;;;1.27;;
9117;SDS011;4594;50.994;7.126;2024-03-02T09:17:28;1.10;;;1.10;;
9117;SDS011;4594;50.994;7.126;2024-03-02T09:19:54;1.47;;;1.30;;
9117;SDS011;4594;50.994;7.126;2024-03-02T09:22:20;1.00;;;1.00;;
9117;SDS011;4594;50.994;7.126;2024-03-02T09:24:46;0.90;;;0.90;;
9117;SDS011;4594;50.994;7.126;2024-03-02T09:27:12;1.60;;;1.20;;
9117;SDS011;4594;50.994;7.126;2024-03-02T09:29:38;1.60;;;1.30;;
9117;SDS011;4594;50.994;7.126;2024-03-02T09:32:04;2.83;;;2.03;;
9117;SDS011;4594;50.994;7.126;2024-03-02T09:34:31;1.50;;;1.40;;
9117;SDS011;4594;50.994;7.126;2024-03-02T09:36:57;0.97;;;0.97;;
9117;SDS011;4594;50.994;7.126;2024-03-02T09:39:23;0.87;;;0.87;;
9117;SDS011;4594;50.994;7.126;2024-03-02T09:41:50;0.90;;;0.90;;
9117;SDS011;4594;50.994;7.126;2024-03-02T09:44:16;1.30;;;1.10;;
9117;SDS011;4594;50.994;7.126;2024-03-02T09:46:42;1.00;;;1.00;;
9117;SDS011;4594;50.994;7.126;2024-03-02T09:49:09;1.30;;;0.90;;
9117;SDS011;4594;50.994;7.126;2024-03-02T09:51:36;1.10;;;1.10;;
9117;SDS011;4594;50.994;7.126;2024-03-02T09:54:02;2.03;;;1.50;;
9117;SDS011;4594;50.994;7.126;2024-03-02T09:56:29;1.20;;;1.20;;
9117;SDS011;4594;50.994;7.126;2024-03-02T09:58:54;2.80;;;1.30;;
9117;SDS011;4594;50.994;7.126;2024-03-02T10:01:20;2.20;;;1.07;;
9117;SDS011;4594;50.994;7.126;2024-03-02T10:03:46;1.20;;;1.10;;
9117;SDS011;4594;50.994;7.126;2024-03-02T10:06:20;1.67;;;1.30;;
9117;SDS011;4594;50.994;7.126;2024-03-02T10:08:50;1.73;;;1.17;;
9117;SDS011;4594;50.994;7.126;2024-03-02T10:11:33;1.43;;;1.00;;
9117;SDS011;4594;50.994;7.126;2024-03-02T10:14:09;1.33;;;1.23;;
9117;SDS011;4594;50.994;7.126;2024-03-02T10:16:38;1.43;;;1.10;;
9117;SDS011;4594;50.994;7.126;2024-03-02T10:19:24;1.63;;;1.30;;
9117;SDS011;4594;50.994;7.126;2024-03-02T10:21:52;1.20;;;1.10;;
9117;SDS011;4594;50.994;7.126;2024-03-02T10:24:19;1.30;;;1.30;;
9117;SDS011;4594;50.994;7.126;2024-03-02T10:26:47;1.50;;;1.40;;
9117;SDS011;4594;50.994;7.126;2024-03-02T10:29:13;1.93;;;1.40;;
9117;SDS011;4594;50.994;7.126;2024-03-02T10:31:40;3.63;;;1.37;;
9117;SDS011;4594;50.994;7.126;2024-03-02T10:34:09;3.27;;;1.27;;
9117;SDS011;4594;50.994;7.126;2024-03-02T10:36:36;1.17;;;1.07;;
9117;SDS011;4594;50.994;7.126;2024-03-02T10:39:05;3.10;;;1.20;;
9117;SDS011;4594;50.994;7.126;2024-03-02T10:41:34;1.00;;;1.00;;
9117;SDS011;4594;50.994;7.126;2024-03-02T10:44:02;1.40;;;1.30;;
9117;SDS011;4594;50.994;7.126;2024-03-02T10:46:30;3.43;;;1.23;;
9117;SDS011;4594;50.994;7.126;2024-03-02T10:48:59;1.20;;;1.20;;
9117;SDS011;4594;50.994;7.126;2024-03-02T10:51:27;2.83;;;1.30;;
9117;SDS011;4594;50.994;7.126;2024-03-02T10:53:57;2.87;;;1.07;;
9117;SDS011;4594;50.994;7.126;2024-03-02T10:59:01;3.37;;;1.30;;
9117;SDS011;4594;50.994;7.126;2024-03-02T11:01:39;1.37;;;1.20;;
9117;SDS011;4594;50.994;7.126;2024-03-02T11:04:09;1.20;;;1.20;;
9117;SDS011;4594;50.994;7.126;2024-03-02T11:06:37;1.30;;;1.30;;
9117;SDS011;4594;50.994;7.126;2024-03-02T11:09:08;1.20;;;1.20;;
9117;SDS011;4594;50.994;7.126;2024-03-02T11:11:40;1.30;;;1.30;;
9117;SDS011;4594;50.994;7.126;2024-03-02T11:14:13;1.67;;;1.50;;
9117;SDS011;4594;50.994;7.126;2024-03-02T11:16:42;1.73;;;1.50;;
9117;SDS011;4594;50.994;7.126;2024-03-02T11:19:10;1.67;;;1.57;;
9117;SDS011;4594;50.994;7.126;2024-03-02T11:21:41;3.03;;;1.60;;
9117;SDS011;4594;50.994;7.126;2024-03-02T11:26:49;1.63;;;1.57;;
9117;SDS011;4594;50.994;7.126;2024-03-02T11:34:30;1.63;;;1.53;;
9117;SDS011;4594;50.994;7.126;2024-03-02T11:37:03;1.50;;;1.50;;
9117;SDS011;4594;50.994;7.126;2024-03-02T11:39:30;1.80;;;1.40;;
9117;SDS011;4594;50.994;7.126;2024-03-02T11:41:56;1.70;;;1.60;;
9117;SDS011;4594;50.994;7.126;2024-03-02T11:44:27;1.67;;;1.60;;
9117;SDS011;4594;50.994;7.126;2024-03-02T11:46:59;1.60;;;1.47;;
9117;SDS011;4594;50.994;7.126;2024-03-02T11:52:16;1.80;;;1.70;;
9117;SDS011;4594;50.994;7.126;2024-03-02T11:54:46;1.73;;;1.63;;
9117;SDS011;4594;50.994;7.126;2024-03-02T11:57:21;1.73;;;1.73;;
9117;SDS011;4594;50.994;7.126;2024-03-02T11:59:50;1.60;;;1.60;;
9117;SDS011;4594;50.994;7.126;2024-03-02T12:02:17;2.10;;;1.77;;
9117;SDS011;4594;50.994;7.126;2024-03-02T12:04:47;1.80;;;1.70;;
9117;SDS011;4594;50.994;7.126;2024-03-02T12:07:23;5.60;;;1.80;;
9117;SDS011;4594;50.994;7.126;2024-03-02T12:09:49;1.90;;;1.80;;
9117;SDS011;4594;50.994;7.126;2024-03-02T12:12:35;1.80;;;1.70;;
9117;SDS011;4594;50.994;7.126;2024-03-02T12:15:01;1.87;;;1.77;;
9117;SDS011;4594;50.994;7.126;2024-03-02T12:17:28;1.53;;;1.53;;
9117;SDS011;4594;50.994;7.126;2024-03-02T12:19:54;1.70;;;1.60;;
9117;SDS011;4594;50.994;7.126;2024-03-02T12:22:20;1.70;;;1.63;;
9117;SDS011;4594;50.994;7.126;2024-03-02T12:24:46;1.80;;;1.70;;
9117;SDS011;4594;50.994;7.126;2024-03-02T12:27:13;2.20;;;1.80;;
9117;SDS011;4594;50.994;7.126;2024-03-02T12:29:40;1.97;;;1.53;;
9117;SDS011;4594;50.994;7.126;2024-03-02T12:32:06;1.83;;;1.73;;
9117;SDS011;4594;50.994;7.126;2024-03-02T12:34:33;1.90;;;1.80;;
9117;SDS011;4594;50.994;7.126;2024-03-02T12:36:58;1.67;;;1.60;;
9117;SDS011;4594;50.994;7.126;2024-03-02T12:39:24;1.70;;;1.60;;
9117;SDS011;4594;50.994;7.126;2024-03-02T12:41:50;1.87;;;1.77;;
9117;SDS011;4594;50.994;7.126;2024-03-02T12:44:17;1.77;;;1.77;;
9117;SDS011;4594;50.994;7.126;2024-03-02T12:46:43;1.80;;;1.70;;
9117;SDS011;4594;50.994;7.126;2024-03-02T12:49:10;1.40;;;1.40;;
9117;SDS011;4594;50.994;7.126;2024-03-02T12:51:38;1.53;;;1.53;;
9117;SDS011;4594;50.994;7.126;2024-03-02T12:54:08;1.70;;;1.60;;
9117;SDS011;4594;50.994;7.126;2024-03-02T12:56:35;1.53;;;1.53;;
9117;SDS011;4594;50.994;7.126;2024-03-02T12:59:03;2.17;;;1.60;;
9117;SDS011;4594;50.994;7.126;2024-03-02T13:01:30;1.80;;;1.70;;
9117;SDS011;4594;50.994;7.126;2024-03-02T13:03:57;1.40;;;1.40;;
9117;SDS011;4594;50.994;7.126;2024-03-02T13:06:24;1.73;;;1.67;;
9117;SDS011;4594;50.994;7.126;2024-03-02T13:08:54;2.20;;;1.50;;
9117;SDS011;4594;50.994;7.126;2024-03-02T13:11:21;1.63;;;1.53;;
9117;SDS011;4594;50.994;7.126;2024-03-02T13:13:49;1.50;;;1.50;;
9117;SDS011;4594;50.994;7.126;2024-03-02T13:16:15;1.50;;;1.50;;
9117;SDS011;4594;50.994;7.126;2024-03-02T13:18:44;1.47;;;1.40;;
9117;SDS011;4594;50.994;7.126;2024-03-02T13:21:10;1.80;;;1.80;;
9117;SDS011;4594;50.994;7.126;2024-03-02T13:23:35;1.70;;;1.70;;
9117;SDS011;4594;50.994;7.126;2024-03-02T13:26:01;1.37;;;1.37;;
9117;SDS011;4594;50.994;7.126;2024-03-02T13:28:27;1.73;;;1.63;;
9117;SDS011;4594;50.994;7.126;2024-03-02T13:30:53;1.80;;;1.70;;
9117;SDS011;4594;50.994;7.126;2024-03-02T13:33:19;1.90;;;1.80;;
9117;SDS011;4594;50.994;7.126;2024-03-02T13:35:47;1.60;;;1.60;;
9117;SDS011;4594;50.994;7.126;2024-03-02T13:38:17;1.30;;;1.30;;
9117;SDS011;4594;50.994;7.126;2024-03-02T13:40:44;1.80;;;1.70;;
9117;SDS011;4594;50.994;7.126;2024-03-02T13:43:11;1.60;;;1.50;;
9117;SDS011;4594;50.994;7.126;2024-03-02T13:45:37;1.70;;;1.70;;
9117;SDS011;4594;50.994;7.126;2024-03-02T13:48:04;1.40;;;1.40;;
9117;SDS011;4594;50.994;7.126;2024-03-02T13:50:30;2.53;;;1.63;;
9117;SDS011;4594;50.994;7.126;2024-03-02T13:52:56;1.70;;;1.70;;
9117;SDS011;4594;50.994;7.126;2024-03-02T13:55:22;1.67;;;1.60;;
9117;SDS011;4594;50.994;7.126;2024-03-02T13:57:48;1.80;;;1.70;;
9117;SDS011;4594;50.994;7.126;2024-03-02T14:00:17;1.60;;;1.57;;
9117;SDS011;4594;50.994;7.126;2024-03-02T14:02:43;2.00;;;1.90;;
9117;SDS011;4594;50.994;7.126;2024-03-02T14:05:11;1.67;;;1.57;;
9117;SDS011;4594;50.994;7.126;2024-03-02T14:07:38;1.60;;;1.60;;
9117;SDS011;4594;50.994;7.126;2024-03-02T14:10:06;1.90;;;1.80;;
9117;SDS011;4594;50.994;7.126;2024-03-02T14:12:32;1.40;;;1.40;;
9117;SDS011;4594;50.994;7.126;2024-03-02T14:14:58;1.50;;;1.50;;
9117;SDS011;4594;50.994;7.126;2024-03-02T14:17:27;1.40;;;1.40;;
9117;SDS011;4594;50.994;7.126;2024-03-02T14:19:53;1.60;;;1.60;;
9117;SDS011;4594;50.994;7.126;2024-03-02T14:22:19;1.70;;;1.70;;
9117;SDS011;4594;50.994;7.126;2024-03-02T14:24:45;1.50;;;1.40;;
9117;SDS011;4594;50.994;7.126;2024-03-02T14:27:12;1.83;;;1.70;;
9117;SDS011;4594;50.994;7.126;2024-03-02T14:29:39;1.40;;;1.40;;
9117;SDS011;4594;50.994;7.126;2024-03-02T14:32:08;1.50;;;1.50;;
9117;SDS011;4594;50.994;7.126;2024-03-02T14:34:34;2.03;;;1.90;;
9117;SDS011;4594;50.994;7.126;2024-03-02T14:37:00;2.27;;;1.63;;
9117;SDS011;4594;50.994;7.126;2024-03-02T14:39:26;2.10;;;1.70;;
9117;SDS011;4594;50.994;7.126;2024-03-02T14:41:52;2.03;;;1.80;;
9117;SDS011;4594;50.994;7.126;2024-03-02T14:44:18;1.73;;;1.63;;
9117;SDS011;4594;50.994;7.126;2024-03-02T14:46:46;1.40;;;1.40;;
9117;SDS011;4594;50.994;7.126;2024-03-02T14:49:13;1.80;;;1.73;;
9117;SDS011;4594;50.994;7.126;2024-03-02T14:51:39;1.70;;;1.60;;
9117;SDS011;4594;50.994;7.126;2024-03-02T14:54:05;1.60;;;1.60;;
9117;SDS011;4594;50.994;7.126;2024-03-02T14:56:31;1.40;;;1.40;;
9117;SDS011;4594;50.994;7.126;2024-03-02T14:58:57;1.87;;;1.60;;
9117;SDS011;4594;50.994;7.126;2024-03-02T15:01:22;1.40;;;1.40;;
9117;SDS011;4594;50.994;7.126;2024-03-02T15:03:49;1.63;;;1.57;;
9117;SDS011;4594;50.994;7.126;2024-03-02T15:06:16;1.50;;;1.50;;
9117;SDS011;4594;50.994;7.126;2024-03-02T15:08:42;1.73;;;1.67;;
9117;SDS011;4594;50.994;7.126;2024-03-02T15:11:08;1.80;;;1.60;;
9117;SDS011;4594;50.994;7.126;2024-03-02T15:13:34;1.50;;;1.50;;
9117;SDS011;4594;50.994;7.126;2024-03-02T15:16:00;1.40;;;1.40;;
9117;SDS011;4594;50.994;7.126;2024-03-02T15:18:26;1.70;;;1.60;;
9117;SDS011;4594;50.994;7.126;2024-03-02T15:20:52;1.50;;;1.40;;
9117;SDS011;4594;50.994;7.126;2024-03-02T15:23:18;3.60;;;1.50;;
9117;SDS011;4594;50.994;7.126;2024-03-02T15:25:43;1.60;;;1.50;;
9117;SDS011;4594;50.994;7.126;2024-03-02T15:28:09;1.33;;;1.33;;
9117;SDS011;4594;50.994;7.126;2024-03-02T15:30:35;2.00;;;1.90;;
9117;SDS011;4594;50.994;7.126;2024-03-02T15:33:01;1.70;;;1.70;;